Houlton, ME

9:39 AM EDT on July 26, 2016 (GMT -0400)
Houlton Astrophysics LLC | | Change Station

Elev 400 ft 46.13 °N, 67.83 °W | Updated 7 minutes ago

Overcast
Overcast
71.8 °F
Feels Like 73 °F
N
0.0
Wind Variable Wind from ESE

Today
High -- | Low -- °F
--% Chance of Precip.
Yesterday
High -- | Low -- °F
Precip. -- in
Pressure 29.71 in
Visibility 9.0 miles
Clouds Mostly Cloudy 1100 ft
Mostly Cloudy 1600 ft
Overcast 3100 ft
Heat Index 73 °F
Dew Point 64 °F
Humidity 76%
Rainfall 0.02 in
Snow Depth Not available.
5:07 AM 8:08 PM
Waning Gibbous, 54% visible
SPECI KHUL 261329Z AUTO VRB03KT 9SM BKN011 BKN016 OVC031 21/19 A2971 RMK AO2 T02060194
Pressure 29.71 in
Visibility 9.0 miles
Clouds Mostly Cloudy 1100 ft
Mostly Cloudy 1600 ft
Overcast 3100 ft
Heat Index 73 °F
Dew Point 64 °F
Humidity 76%
Rainfall 0.02 in
Snow Depth Not available.
5:07 AM 8:08 PM
Waning Gibbous, 54% visible
SPECI KHUL 261329Z AUTO VRB03KT 9SM BKN011 BKN016 OVC031 21/19 A2971 RMK AO2 T02060194

10-Day Weather Forecast

Almanac

Astronomy

Jul. 26, 2016 Rise Set
Actual Time
Civil Twilight
Nautical Twilight
Astronomical Twilight
Moon
Length of Visible Light
Length of Day
Tomorrow will be .
, % of the Moon is Illuminated

Today's Extremes

State Highs State Lows

Community

WunderPhotos

Upload Photos

1,927,587 photos uploaded!

WunderBlog® & News

Nearby

Air Quality

  Air Quality AQ Index Pollutant
Not available.

Snow Depth

Station Depth Elevation

Earthquake Activity

City Distance Mag. Time & Date
Minimum magnitude displayed is 2.5.

Coastal Water Temperatures

Place Temperature

Stations

Nearby Weather Stations

Station Location Temp. Windchill Dew Point Humidity Wind Precip. Elev Updated Type
                   

Watches & Warnings

There are currently no watches in effect.